Time;durP1;ratioP1;P1;durP2;ratioP2;P2;SDS_P1;SDS_P2;PMS_P1;PMS_P2;Temp;Humidity;BMP_temperature;BMP_pressure;BME280_temperature;BME280_humidity;BME280_pressure;Samples;Min_cycle;Max_cycle;Signal;HPM_P1;HPM_P2
2022/12/06 00:00:42;;;;;;;13.38;5.38;;;;;;;;;;5085796;28;20077;-75
2022/12/06 00:03:08;;;;;;;13.45;6.57;;;;;;;;;;5096046;28;20073;-75
2022/12/06 00:05:34;;;;;;;10.38;5.43;;;;;;;;;;5095944;28;20035;-75
2022/12/06 00:08:01;;;;;;;10.27;5.40;;;;;;;;;;5096050;28;20024;-75
2022/12/06 00:10:27;;;;;;;15.57;5.70;;;;;;;;;;5095798;28;20028;-75
2022/12/06 00:12:53;;;;;;;10.18;5.45;;;;;;;;;;5096032;28;20041;-75
2022/12/06 00:15:19;;;;;;;10.93;5.25;;;;;;;;;;5094708;28;20107;-75
2022/12/06 00:17:45;;;;;;;12.57;5.70;;;;;;;;;;5079644;28;20386;-75
2022/12/06 00:20:11;;;;;;;11.98;5.75;;;;;;;;;;5113779;28;20030;-75
2022/12/06 00:22:43;;;;;;;11.43;5.35;;;;;;;;;;5077347;28;20097;-75
2022/12/06 00:25:09;;;;;;;11.73;5.18;;;;;;;;;;5095808;28;20400;-75
2022/12/06 00:27:35;;;;;;;10.63;5.47;;;;;;;;;;5077607;28;20032;-75
2022/12/06 00:30:01;;;;;;;10.95;5.25;;;;;;;;;;5095611;28;20483;-75
2022/12/06 00:32:27;;;;;;;9.32;4.47;;;;;;;;;;5095355;28;20103;-75
2022/12/06 00:34:53;;;;;;;15.73;5.28;;;;;;;;;;5077319;28;20496;-75
2022/12/06 00:37:20;;;;;;;13.50;5.43;;;;;;;;;;5093921;28;20039;-75
2022/12/06 00:39:46;;;;;;;13.13;4.93;;;;;;;;;;5077456;28;20024;-75
2022/12/06 00:42:12;;;;;;;13.55;5.47;;;;;;;;;;5077270;28;20035;-75
2022/12/06 00:44:38;;;;;;;11.05;5.05;;;;;;;;;;5095372;28;20070;-75
2022/12/06 00:47:04;;;;;;;14.48;5.55;;;;;;;;;;5077223;28;20047;-75
2022/12/06 00:49:30;;;;;;;16.17;5.57;;;;;;;;;;5077162;28;20036;-75
2022/12/06 00:51:56;;;;;;;13.77;5.45;;;;;;;;;;5095110;28;20031;-75
2022/12/06 00:54:22;;;;;;;13.05;5.95;;;;;;;;;;5097898;28;20031;-75
2022/12/06 00:56:48;;;;;;;15.68;6.13;;;;;;;;;;5094839;28;20032;-75
2022/12/06 00:59:15;;;;;;;17.70;6.15;;;;;;;;;;5094725;28;20036;-75
2022/12/06 01:01:41;;;;;;;14.52;5.97;;;;;;;;;;5110172;28;20027;-75
2022/12/06 01:04:08;;;;;;;19.35;5.97;;;;;;;;;;5097271;28;20053;-75
2022/12/06 01:06:35;;;;;;;15.77;6.40;;;;;;;;;;5104540;28;20016;-75
2022/12/06 01:09:03;;;;;;;24.40;6.75;;;;;;;;;;5094930;28;20027;-75
2022/12/06 01:11:29;;;;;;;17.45;6.32;;;;;;;;;;5076465;28;20359;-75
2022/12/06 01:13:55;;;;;;;17.20;5.97;;;;;;;;;;5094865;28;20036;-76
2022/12/06 01:16:24;;;;;;;15.07;6.47;;;;;;;;;;5076544;28;20473;-75
2022/12/06 01:18:54;;;;;;;13.73;6.72;;;;;;;;;;5093812;28;20028;-75
2022/12/06 01:21:21;;;;;;;12.65;6.30;;;;;;;;;;5106201;28;20031;-75
2022/12/06 01:23:47;;;;;;;14.43;6.20;;;;;;;;;;5095651;28;20092;-75
2022/12/06 01:26:24;;;;;;;14.55;6.30;;;;;;;;;;5108280;28;20470;-75
2022/12/06 01:28:50;;;;;;;15.15;6.18;;;;;;;;;;5114394;28;20390;-75
2022/12/06 01:31:16;;;;;;;13.30;6.43;;;;;;;;;;5114322;28;20481;-75
2022/12/06 01:33:42;;;;;;;13.40;5.82;;;;;;;;;;5114564;28;20028;-75
2022/12/06 01:36:08;;;;;;;18.02;6.68;;;;;;;;;;5114008;28;20200;-75
2022/12/06 01:38:34;;;;;;;12.57;6.18;;;;;;;;;;5096375;28;20070;-75
2022/12/06 01:41:01;;;;;;;18.75;6.20;;;;;;;;;;5114157;28;20031;-75
2022/12/06 01:43:41;;;;;;;19.85;6.07;;;;;;;;;;5114520;28;20028;-75
2022/12/06 01:46:25;;;;;;;11.90;6.07;;;;;;;;;;5114241;28;20020;-75
2022/12/06 01:48:53;;;;;;;14.00;5.82;;;;;;;;;;5096003;28;20027;-75
2022/12/06 01:51:19;;;;;;;14.98;5.88;;;;;;;;;;5095983;28;20034;-75
2022/12/06 01:53:47;;;;;;;15.77;5.85;;;;;;;;;;5114191;28;20038;-75
2022/12/06 01:56:13;;;;;;;14.38;6.72;;;;;;;;;;5095637;28;20054;-75
2022/12/06 01:58:41;;;;;;;12.60;6.75;;;;;;;;;;5093589;28;20037;-75
2022/12/06 02:01:08;;;;;;;15.45;6.38;;;;;;;;;;5095782;28;20062;-75
2022/12/06 02:03:35;;;;;;;15.43;6.65;;;;;;;;;;5114073;28;20024;-75
2022/12/06 02:06:03;;;;;;;25.40;8.98;;;;;;;;;;5089797;28;20024;-75
2022/12/06 02:08:29;;;;;;;20.05;6.57;;;;;;;;;;5093571;28;20024;-75
2022/12/06 02:10:55;;;;;;;23.20;6.50;;;;;;;;;;5075375;28;20462;-75
2022/12/06 02:13:22;;;;;;;17.20;6.57;;;;;;;;;;5093905;28;20036;-75
2022/12/06 02:15:54;;;;;;;14.50;6.50;;;;;;;;;;5058541;28;20046;-75
2022/12/06 02:18:43;;;;;;;23.95;6.93;;;;;;;;;;5075028;28;20023;-75
2022/12/06 02:21:24;;;;;;;17.45;6.53;;;;;;;;;;5074975;28;20024;-75
2022/12/06 02:24:09;;;;;;;25.23;7.28;;;;;;;;;;5093419;28;20379;-75
2022/12/06 02:26:38;;;;;;;16.25;6.70;;;;;;;;;;5092751;28;20043;-77
2022/12/06 02:29:22;;;;;;;13.23;6.40;;;;;;;;;;5074925;28;20122;-77
2022/12/06 02:32:00;;;;;;;13.85;6.43;;;;;;;;;;5080939;28;20085;-77
2022/12/06 02:34:45;;;;;;;23.27;7.13;;;;;;;;;;5094511;28;20100;-77
2022/12/06 02:37:22;;;;;;;16.35;6.47;;;;;;;;;;5112508;28;20081;-77
2022/12/06 02:39:49;;;;;;;20.75;7.22;;;;;;;;;;5094630;28;20024;-78
2022/12/06 02:42:18;;;;;;;18.08;6.90;;;;;;;;;;5094503;28;20366;-77
2022/12/06 02:44:46;;;;;;;22.20;6.65;;;;;;;;;;5100585;28;20085;-77
2022/12/06 02:47:15;;;;;;;15.30;6.63;;;;;;;;;;5091945;28;20035;-77
2022/12/06 02:49:45;;;;;;;28.27;6.00;;;;;;;;;;5092748;28;20016;-77
2022/12/06 02:52:12;;;;;;;23.42;7.15;;;;;;;;;;5092871;28;20027;-77
2022/12/06 02:54:39;;;;;;;13.95;6.15;;;;;;;;;;5092647;28;20408;-77
2022/12/06 02:57:05;;;;;;;17.65;6.60;;;;;;;;;;5092655;28;20028;-78
2022/12/06 02:59:31;;;;;;;18.70;6.78;;;;;;;;;;5076094;28;20077;-77
2022/12/06 03:01:59;;;;;;;16.80;6.40;;;;;;;;;;5085945;28;20521;-77
2022/12/06 03:04:31;;;;;;;24.27;6.50;;;;;;;;;;5092612;28;20032;-78
2022/12/06 03:07:09;;;;;;;12.95;5.95;;;;;;;;;;5106665;28;20145;-77
2022/12/06 03:09:40;;;;;;;20.85;6.28;;;;;;;;;;5112739;28;20492;-77
2022/12/06 03:12:11;;;;;;;17.88;6.00;;;;;;;;;;5112823;28;20051;-77
2022/12/06 03:14:50;;;;;;;15.60;6.15;;;;;;;;;;5113135;28;20055;-77
2022/12/06 03:17:16;;;;;;;16.85;5.60;;;;;;;;;;5113143;28;20034;-77
2022/12/06 03:19:43;;;;;;;20.45;5.47;;;;;;;;;;5112802;28;20024;-77
2022/12/06 03:22:21;;;;;;;19.25;5.63;;;;;;;;;;5077673;28;20389;-77
2022/12/06 03:24:47;;;;;;;17.08;5.88;;;;;;;;;;5112913;28;20024;-77
2022/12/06 03:27:15;;;;;;;15.57;5.43;;;;;;;;;;5094081;28;20028;-77
2022/12/06 03:29:45;;;;;;;18.58;5.18;;;;;;;;;;5092414;28;20081;-77
2022/12/06 03:32:12;;;;;;;27.08;5.40;;;;;;;;;;5074444;28;20021;-77
2022/12/06 03:34:40;;;;;;;14.05;5.22;;;;;;;;;;5092637;28;20470;-77
2022/12/06 03:37:09;;;;;;;18.83;5.25;;;;;;;;;;5074642;28;20024;-77
2022/12/06 03:39:37;;;;;;;11.20;4.75;;;;;;;;;;5074178;28;20035;-77
2022/12/06 03:42:03;;;;;;;16.35;5.30;;;;;;;;;;5092300;28;20043;-77
2022/12/06 03:44:29;;;;;;;19.80;4.97;;;;;;;;;;5092891;28;20036;-77
2022/12/06 03:47:24;;;;;;;14.15;5.40;;;;;;;;;;5092316;28;20105;-78
2022/12/06 03:49:58;;;;;;;16.05;4.25;;;;;;;;;;5038083;28;20052;-77
2022/12/06 03:52:25;;;;;;;11.48;4.50;;;;;;;;;;5074325;28;20024;-78
2022/12/06 03:54:51;;;;;;;13.98;4.45;;;;;;;;;;5078471;28;20328;-77
2022/12/06 03:57:17;;;;;;;14.13;4.28;;;;;;;;;;5092155;28;20016;-78
2022/12/06 03:59:43;;;;;;;16.85;4.35;;;;;;;;;;5094727;28;20081;-77
2022/12/06 04:02:09;;;;;;;16.50;4.75;;;;;;;;;;5061227;28;20028;-78
2022/12/06 04:04:35;;;;;;;12.07;4.30;;;;;;;;;;5096015;28;20039;-77
2022/12/06 04:07:01;;;;;;;13.00;4.30;;;;;;;;;;5096015;28;20073;-75
2022/12/06 04:14:56;;;;;;;11.15;4.35;;;;;;;;;;5096037;28;20528;-75
2022/12/06 04:20:07;;;;;;;17.67;3.75;;;;;;;;;;5098884;28;20069;-75
2022/12/06 04:25:18;;;;;;;12.02;4.00;;;;;;;;;;5113851;28;20052;-75
2022/12/06 04:38:43;;;;;;;10.82;3.70;;;;;;;;;;5095326;28;20043;-75
2022/12/06 04:43:40;;;;;;;11.30;3.38;;;;;;;;;;5060628;28;20167;-75
2022/12/06 04:43:59;;;;;;;18.52;3.67;;;;;;;;;;5094901;28;20032;-75
2022/12/06 04:46:25;;;;;;;9.68;3.53;;;;;;;;;;5110807;28;20032;-75
2022/12/06 04:48:51;;;;;;;7.75;3.80;;;;;;;;;;5093954;28;20035;-75
2022/12/06 04:51:17;;;;;;;11.75;3.95;;;;;;;;;;5095198;28;20062;-77
2022/12/06 04:53:43;;;;;;;8.57;3.42;;;;;;;;;;5093748;28;20028;-77
2022/12/06 04:56:09;;;;;;;12.02;4.05;;;;;;;;;;5097078;28;20039;-77
2022/12/06 04:58:35;;;;;;;12.80;3.60;;;;;;;;;;5080279;28;20119;-77
2022/12/06 05:01:01;;;;;;;13.68;3.88;;;;;;;;;;5080119;28;20418;-77
2022/12/06 05:03:27;;;;;;;9.13;3.88;;;;;;;;;;5095913;28;20538;-77
2022/12/06 05:05:53;;;;;;;10.32;3.53;;;;;;;;;;5099189;27;20026;-77
2022/12/06 05:08:19;;;;;;;11.18;3.88;;;;;;;;;;5097006;28;20052;-77
2022/12/06 05:10:49;;;;;;;9.85;3.97;;;;;;;;;;5096166;28;20089;-77
2022/12/06 05:13:16;;;;;;;10.38;3.92;;;;;;;;;;5096753;28;20126;-77
2022/12/06 05:16:01;;;;;;;14.27;4.35;;;;;;;;;;5115085;28;20103;-77
2022/12/06 05:18:28;;;;;;;14.80;4.55;;;;;;;;;;5105877;28;20086;-77
2022/12/06 05:21:01;;;;;;;16.52;3.85;;;;;;;;;;5076408;28;20025;-78
2022/12/06 05:23:27;;;;;;;9.05;3.97;;;;;;;;;;5094141;28;20493;-77
2022/12/06 05:25:57;;;;;;;12.68;3.97;;;;;;;;;;5096517;28;20033;-77
2022/12/06 05:28:23;;;;;;;11.95;3.75;;;;;;;;;;5102306;28;20489;-77
2022/12/06 05:30:49;;;;;;;14.43;3.92;;;;;;;;;;5075750;28;20020;-77
2022/12/06 05:33:16;;;;;;;12.27;3.75;;;;;;;;;;5076024;28;20287;-77
2022/12/06 05:35:42;;;;;;;12.88;3.83;;;;;;;;;;5076019;28;20098;-77
2022/12/06 05:38:08;;;;;;;11.55;3.42;;;;;;;;;;5059539;28;20127;-77
2022/12/06 05:40:34;;;;;;;12.50;3.42;;;;;;;;;;5076028;28;20474;-77
2022/12/06 05:43:00;;;;;;;15.70;3.45;;;;;;;;;;5093913;28;20028;-77
2022/12/06 05:45:26;;;;;;;10.20;3.60;;;;;;;;;;5094246;28;20151;-77
2022/12/06 05:47:52;;;;;;;14.63;3.25;;;;;;;;;;5113834;28;20130;-77
2022/12/06 05:50:18;;;;;;;7.95;3.38;;;;;;;;;;5095732;28;20076;-77
2022/12/06 05:52:44;;;;;;;13.10;3.53;;;;;;;;;;5095581;28;20088;-77
2022/12/06 05:55:10;;;;;;;13.43;3.88;;;;;;;;;;5085355;28;20028;-77
2022/12/06 05:57:36;;;;;;;12.60;3.63;;;;;;;;;;5075210;28;20032;-77
2022/12/06 06:00:04;;;;;;;21.48;4.75;;;;;;;;;;5077129;28;20017;-77
2022/12/06 06:02:30;;;;;;;8.57;3.55;;;;;;;;;;5095362;28;20026;-77
2022/12/06 06:04:56;;;;;;;8.65;3.65;;;;;;;;;;5095006;28;20019;-77
2022/12/06 06:07:22;;;;;;;8.13;3.80;;;;;;;;;;5113563;28;20020;-77
2022/12/06 06:09:48;;;;;;;16.80;3.67;;;;;;;;;;5095444;28;20023;-77
2022/12/06 06:12:14;;;;;;;8.32;3.45;;;;;;;;;;5113785;28;20027;-77
2022/12/06 06:14:40;;;;;;;8.95;3.38;;;;;;;;;;5113583;28;20443;-77
2022/12/06 06:17:06;;;;;;;5.82;2.65;;;;;;;;;;5113847;28;20035;-77
2022/12/06 06:19:32;;;;;;;7.43;3.63;;;;;;;;;;5095493;28;20024;-77
2022/12/06 06:21:58;;;;;;;12.10;3.67;;;;;;;;;;5093794;28;20028;-77
2022/12/06 06:24:24;;;;;;;6.43;3.55;;;;;;;;;;5113429;28;20040;-77
2022/12/06 06:26:50;;;;;;;9.68;3.85;;;;;;;;;;5079370;28;20047;-78
2022/12/06 06:29:16;;;;;;;11.70;3.17;;;;;;;;;;5075078;28;20035;-77
2022/12/06 06:31:42;;;;;;;10.80;3.72;;;;;;;;;;5093027;28;20107;-77
2022/12/06 06:34:08;;;;;;;9.27;3.72;;;;;;;;;;5093376;28;20035;-77
2022/12/06 06:36:34;;;;;;;8.43;3.67;;;;;;;;;;5093304;28;20032;-77
2022/12/06 06:39:00;;;;;;;8.00;3.13;;;;;;;;;;5093186;28;20036;-77
2022/12/06 06:41:26;;;;;;;10.07;3.88;;;;;;;;;;5093012;28;20032;-77
2022/12/06 06:43:52;;;;;;;9.02;3.72;;;;;;;;;;5099499;28;20495;-77
2022/12/06 06:46:18;;;;;;;21.67;6.00;;;;;;;;;;5113337;28;20020;-77
2022/12/06 06:48:44;;;;;;;9.20;3.38;;;;;;;;;;5094859;28;20039;-77
2022/12/06 06:51:12;;;;;;;12.70;3.67;;;;;;;;;;5094299;28;20032;-77
2022/12/06 06:53:38;;;;;;;11.85;3.90;;;;;;;;;;5094025;28;20498;-77
2022/12/06 06:56:05;;;;;;;15.57;3.70;;;;;;;;;;5094289;28;20449;-77
2022/12/06 06:58:31;;;;;;;7.78;3.40;;;;;;;;;;5091040;28;20465;-77
2022/12/06 07:00:58;;;;;;;8.82;3.55;;;;;;;;;;5077945;28;20082;-77
2022/12/06 07:03:25;;;;;;;11.38;3.42;;;;;;;;;;5092556;28;20020;-77
2022/12/06 07:05:52;;;;;;;10.25;4.00;;;;;;;;;;5092524;28;20016;-77
2022/12/06 07:08:18;;;;;;;13.13;4.40;;;;;;;;;;5092658;28;20020;-78
2022/12/06 07:10:47;;;;;;;8.55;4.35;;;;;;;;;;5092464;28;20039;-77
2022/12/06 07:13:14;;;;;;;22.00;4.82;;;;;;;;;;5074616;28;20032;-77
2022/12/06 07:15:40;;;;;;;11.35;4.43;;;;;;;;;;5092751;28;20466;-77
2022/12/06 07:18:06;;;;;;;12.63;4.78;;;;;;;;;;5086526;28;20032;-77
2022/12/06 07:20:32;;;;;;;9.95;4.57;;;;;;;;;;5057822;28;20035;-77
2022/12/06 07:22:58;;;;;;;12.05;4.68;;;;;;;;;;5092342;28;20047;-77
2022/12/06 07:25:25;;;;;;;9.13;4.60;;;;;;;;;;5076971;28;20035;-77
2022/12/06 07:27:51;;;;;;;12.20;4.35;;;;;;;;;;5075309;28;20036;-77
2022/12/06 07:30:17;;;;;;;9.80;3.63;;;;;;;;;;5102112;28;20028;-77
2022/12/06 07:32:43;;;;;;;10.88;4.22;;;;;;;;;;5112881;28;20045;-77
2022/12/06 07:35:09;;;;;;;9.90;4.22;;;;;;;;;;5115568;28;20019;-77
2022/12/06 07:37:35;;;;;;;9.90;3.63;;;;;;;;;;5116550;28;20493;-77
2022/12/06 07:40:01;;;;;;;6.35;3.80;;;;;;;;;;5116832;28;20462;-77
2022/12/06 07:45:13;;;;;;;15.45;5.03;;;;;;;;;;5100394;28;20084;-77
2022/12/06 07:47:41;;;;;;;12.30;4.15;;;;;;;;;;5116445;28;20024;-77
2022/12/06 07:50:11;;;;;;;14.32;4.30;;;;;;;;;;5105162;28;20016;-77
2022/12/06 07:52:37;;;;;;;12.90;4.75;;;;;;;;;;5097797;28;20020;-77
2022/12/06 07:55:04;;;;;;;11.98;5.10;;;;;;;;;;5109635;28;20073;-77
2022/12/06 07:57:30;;;;;;;17.90;6.00;;;;;;;;;;5115976;28;20020;-77
2022/12/06 07:59:57;;;;;;;22.70;6.68;;;;;;;;;;5113300;28;20024;-77
2022/12/06 08:02:24;;;;;;;18.38;6.50;;;;;;;;;;5112625;28;20488;-77
2022/12/06 08:04:50;;;;;;;17.17;6.22;;;;;;;;;;5098152;28;20855;-77
2022/12/06 08:07:17;;;;;;;14.27;6.40;;;;;;;;;;5116251;28;20466;-77
2022/12/06 08:09:43;;;;;;;15.10;6.78;;;;;;;;;;5115839;28;20024;-77
2022/12/06 08:12:09;;;;;;;19.17;7.43;;;;;;;;;;5097214;28;20039;-77
2022/12/06 08:14:35;;;;;;;13.02;6.20;;;;;;;;;;5097435;28;20039;-77
2022/12/06 08:17:02;;;;;;;14.32;6.75;;;;;;;;;;5115546;28;20414;-77
2022/12/06 08:19:28;;;;;;;33.85;12.43;;;;;;;;;;5115812;28;20480;-77
2022/12/06 08:21:54;;;;;;;40.80;15.50;;;;;;;;;;5097629;28;20043;-77
2022/12/06 08:24:21;;;;;;;22.73;10.65;;;;;;;;;;5115648;28;20036;-76
2022/12/06 08:26:47;;;;;;;22.75;9.85;;;;;;;;;;5111601;28;20023;-77
2022/12/06 08:29:13;;;;;;;19.98;7.85;;;;;;;;;;5096522;28;20118;-77
2022/12/06 08:31:40;;;;;;;17.70;6.80;;;;;;;;;;5114663;28;20038;-77
2022/12/06 08:34:06;;;;;;;18.83;6.68;;;;;;;;;;5115592;28;20016;-76
2022/12/06 08:36:32;;;;;;;14.85;6.28;;;;;;;;;;5097255;28;20024;-76
2022/12/06 08:38:59;;;;;;;13.18;6.00;;;;;;;;;;5080401;28;20081;-76
2022/12/06 08:44:13;;;;;;;13.60;5.40;;;;;;;;;;5115172;28;20104;-76
2022/12/06 08:46:40;;;;;;;13.57;5.15;;;;;;;;;;5114863;28;20084;-77
2022/12/06 08:49:06;;;;;;;13.77;6.72;;;;;;;;;;5115216;28;20020;-76
2022/12/06 08:51:34;;;;;;;11.18;5.63;;;;;;;;;;5115469;28;20469;-76
2022/12/06 08:54:00;;;;;;;17.35;6.93;;;;;;;;;;5097127;28;20096;-76
2022/12/06 08:56:26;;;;;;;17.60;8.10;;;;;;;;;;5096917;28;20031;-77
2022/12/06 08:58:53;;;;;;;17.83;7.45;;;;;;;;;;5096791;28;20131;-78
2022/12/06 09:01:20;;;;;;;15.10;5.68;;;;;;;;;;5107216;28;20023;-77
2022/12/06 09:03:46;;;;;;;21.00;5.75;;;;;;;;;;5096990;28;20026;-77
2022/12/06 09:06:12;;;;;;;22.42;7.10;;;;;;;;;;5114825;28;20102;-76
2022/12/06 09:08:39;;;;;;;15.73;5.93;;;;;;;;;;5114688;28;20059;-76
2022/12/06 09:11:05;;;;;;;13.02;6.53;;;;;;;;;;5114425;28;20471;-76
2022/12/06 09:13:31;;;;;;;16.05;5.72;;;;;;;;;;5114205;28;20028;-76
2022/12/06 09:15:57;;;;;;;11.57;5.35;;;;;;;;;;5114490;28;20033;-76
2022/12/06 09:18:23;;;;;;;13.57;5.38;;;;;;;;;;5104466;28;20482;-76
2022/12/06 09:20:49;;;;;;;16.90;5.22;;;;;;;;;;5093831;28;20066;-76
2022/12/06 09:23:16;;;;;;;9.05;4.18;;;;;;;;;;5093506;28;20044;-76
2022/12/06 09:25:42;;;;;;;10.75;5.10;;;;;;;;;;5093567;28;20466;-76
2022/12/06 09:28:08;;;;;;;14.02;5.95;;;;;;;;;;5093772;28;20039;-76
2022/12/06 09:30:34;;;;;;;21.98;7.57;;;;;;;;;;5093972;28;20024;-76
2022/12/06 09:33:00;;;;;;;13.50;5.05;;;;;;;;;;5093858;28;20077;-76
2022/12/06 09:35:26;;;;;;;47.80;12.70;;;;;;;;;;5075475;28;20482;-77
2022/12/06 09:37:52;;;;;;;28.27;8.30;;;;;;;;;;5093617;28;20384;-77
2022/12/06 09:40:26;;;;;;;101.78;24.63;;;;;;;;;;5093766;28;20020;-76
2022/12/06 09:42:52;;;;;;;70.40;20.38;;;;;;;;;;5093564;28;20028;-76
2022/12/06 09:45:18;;;;;;;240.40;98.93;;;;;;;;;;5093554;28;20031;-76
2022/12/06 09:47:50;;;;;;;208.52;88.32;;;;;;;;;;5093587;28;20017;-76
2022/12/06 09:50:35;;;;;;;18.65;9.38;;;;;;;;;;5093274;28;20232;-76
2022/12/06 09:53:13;;;;;;;11.55;4.90;;;;;;;;;;5092969;28;20025;-76
2022/12/06 09:55:48;;;;;;;9.38;4.10;;;;;;;;;;5092693;28;20073;-76
2022/12/06 09:58:30;;;;;;;13.20;3.78;;;;;;;;;;5108958;28;20061;-77
2022/12/06 10:01:03;;;;;;;12.98;3.42;;;;;;;;;;5094739;28;20106;-76
2022/12/06 10:03:35;;;;;;;20.83;6.78;;;;;;;;;;5107518;28;20058;-77
2022/12/06 10:06:01;;;;;;;;;;;;;;;;;;5092793;28;20486;-77
2022/12/06 10:08:43;;;;;;;18.75;8.77;;;;;;;;;;5113058;28;19908;-77
2022/12/06 10:11:15;;;;;;;51.08;27.20;;;;;;;;;;5094791;28;20019;-77
2022/12/06 10:13:44;;;;;;;18.83;8.35;;;;;;;;;;5113438;28;20024;-77
2022/12/06 10:16:28;;;;;;;10.55;5.68;;;;;;;;;;5113537;28;20359;-77
2022/12/06 10:18:57;;;;;;;6.85;3.30;;;;;;;;;;5081366;28;20020;-77
2022/12/06 10:21:37;;;;;;;7.30;3.05;;;;;;;;;;5075033;28;20038;-76
2022/12/06 10:24:14;;;;;;;7.10;2.90;;;;;;;;;;5071422;28;20098;-84
2022/12/06 10:26:51;;;;;;;12.38;3.47;;;;;;;;;;5073290;28;20043;-76
2022/12/06 10:29:17;;;;;;;9.35;3.13;;;;;;;;;;5073240;28;20035;-76
2022/12/06 10:31:52;;;;;;;15.45;4.40;;;;;;;;;;5073271;28;20032;-76
2022/12/06 10:34:23;;;;;;;8.85;3.10;;;;;;;;;;5073234;28;20032;-76
2022/12/06 10:36:52;;;;;;;7.97;2.92;;;;;;;;;;5073393;28;20020;-77
2022/12/06 10:39:21;;;;;;;8.38;2.60;;;;;;;;;;5073081;28;20032;-76
2022/12/06 10:41:50;;;;;;;9.50;3.05;;;;;;;;;;5073219;28;20021;-76
2022/12/06 10:44:19;;;;;;;8.00;2.63;;;;;;;;;;5073667;28;20032;-76
2022/12/06 10:47:03;;;;;;;7.75;2.78;;;;;;;;;;5088638;28;20078;-76
2022/12/06 10:49:32;;;;;;;5.95;2.50;;;;;;;;;;5072864;28;20402;-76
2022/12/06 10:52:02;;;;;;;5.53;1.90;;;;;;;;;;5088775;28;20517;-76
2022/12/06 10:54:32;;;;;;;21.67;6.90;;;;;;;;;;5088429;28;20111;-78
2022/12/06 10:57:02;;;;;;;11.15;3.35;;;;;;;;;;5105540;28;20389;-76
2022/12/06 10:59:41;;;;;;;10.02;1.90;;;;;;;;;;5105315;28;20081;-76
2022/12/06 11:02:27;;;;;;;5.50;1.80;;;;;;;;;;5071668;28;20102;-76
2022/12/06 11:04:57;;;;;;;7.13;1.90;;;;;;;;;;5041415;28;20032;-78
2022/12/06 11:07:25;;;;;;;5.53;1.60;;;;;;;;;;5072952;28;20047;-78
2022/12/06 11:09:53;;;;;;;7.80;2.00;;;;;;;;;;5094612;28;20115;-78
2022/12/06 11:12:28;;;;;;;11.77;1.80;;;;;;;;;;5096946;28;20026;-78
2022/12/06 11:14:58;;;;;;;6.53;1.95;;;;;;;;;;5096198;28;20028;-78
2022/12/06 11:49:18;;;;;;;5.82;1.92;;;;;;;;;;5191002;27;20506;-84
2022/12/06 11:51:44;;;;;;;6.95;2.50;;;;;;;;;;5169677;27;20045;-84
2022/12/06 11:54:16;;;;;;;5.20;1.83;;;;;;;;;;5134088;27;20027;-84
2022/12/06 11:56:42;;;;;;;5.53;2.05;;;;;;;;;;5152982;27;20075;-84
2022/12/06 11:59:23;;;;;;;6.00;2.30;;;;;;;;;;5135242;27;20034;-84
2022/12/06 12:01:50;;;;;;;4.18;2.10;;;;;;;;;;5152442;27;20026;-84
2022/12/06 12:04:22;;;;;;;6.25;2.10;;;;;;;;;;5151829;27;20773;-84
2022/12/06 12:06:50;;;;;;;10.63;2.42;;;;;;;;;;5170637;27;20087;-84
2022/12/06 12:09:18;;;;;;;3.70;2.17;;;;;;;;;;5153149;27;20030;-84
2022/12/06 12:11:52;;;;;;;6.43;2.80;;;;;;;;;;5171882;27;20029;-83
2022/12/06 12:14:24;;;;;;;4.57;2.10;;;;;;;;;;5171801;27;20022;-84
2022/12/06 12:16:53;;;;;;;6.10;2.58;;;;;;;;;;5152730;27;20038;-81
2022/12/06 12:19:38;;;;;;;5.90;2.55;;;;;;;;;;5153140;27;20069;-82
2022/12/06 12:22:34;;;;;;;10.38;2.28;;;;;;;;;;5132313;27;20031;-83
2022/12/06 12:25:01;;;;;;;7.10;2.58;;;;;;;;;;5135790;27;20476;-82
2022/12/06 12:27:31;;;;;;;7.95;2.83;;;;;;;;;;5132139;27;20050;-82
2022/12/06 12:30:16;;;;;;;7.65;2.72;;;;;;;;;;5152513;27;20029;-82
2022/12/06 12:32:43;;;;;;;8.35;3.15;;;;;;;;;;5150652;27;20039;-82
2022/12/06 12:35:21;;;;;;;9.13;3.15;;;;;;;;;;5150662;27;20127;-81
2022/12/06 12:37:51;;;;;;;9.43;2.92;;;;;;;;;;5150499;27;20023;-81
2022/12/06 12:40:24;;;;;;;6.78;2.90;;;;;;;;;;5150458;27;20029;-80
2022/12/06 12:42:50;;;;;;;;;;;;;;;;;;5152779;27;20374;-79
2022/12/06 12:45:19;;;;;;;7.60;3.03;;;;;;;;;;5151920;27;19903;-79
2022/12/06 12:47:59;;;;;;;6.70;2.60;;;;;;;;;;5131322;27;20495;-80
2022/12/06 12:50:25;;;;;;;7.60;2.78;;;;;;;;;;5131633;27;20094;-80
2022/12/06 12:52:52;;;;;;;4.93;2.40;;;;;;;;;;5131188;27;20075;-80
2022/12/06 12:55:22;;;;;;;7.25;3.00;;;;;;;;;;5131183;27;20027;-80
2022/12/06 12:57:50;;;;;;;21.40;3.38;;;;;;;;;;5149607;27;20105;-80
2022/12/06 13:00:22;;;;;;;8.63;2.92;;;;;;;;;;5136161;27;20031;-80
2022/12/06 13:03:11;;;;;;;8.60;2.80;;;;;;;;;;5117377;27;20039;-80
2022/12/06 13:05:38;;;;;;;10.45;2.92;;;;;;;;;;5123805;27;20031;-80
2022/12/06 13:08:07;;;;;;;6.72;2.83;;;;;;;;;;5116797;27;20070;-80
2022/12/06 13:10:34;;;;;;;6.93;2.63;;;;;;;;;;5117467;27;20718;-80
2022/12/06 13:13:05;;;;;;;7.07;2.92;;;;;;;;;;5117315;27;20020;-80
2022/12/06 13:15:32;;;;;;;6.93;3.20;;;;;;;;;;5117138;27;20031;-79
2022/12/06 13:18:00;;;;;;;8.15;3.00;;;;;;;;;;5117368;27;20035;-80
2022/12/06 13:20:27;;;;;;;9.60;2.80;;;;;;;;;;5117079;27;20031;-80
2022/12/06 13:22:55;;;;;;;12.43;3.40;;;;;;;;;;5135231;27;20016;-80
2022/12/06 13:25:21;;;;;;;8.68;3.25;;;;;;;;;;5117064;27;20027;-80
2022/12/06 13:27:49;;;;;;;7.80;3.05;;;;;;;;;;5116880;27;20027;-80
2022/12/06 13:30:20;;;;;;;7.47;3.35;;;;;;;;;;5135380;27;20012;-80
2022/12/06 13:32:52;;;;;;;7.70;3.10;;;;;;;;;;5115723;27;20468;-79
2022/12/06 13:35:33;;;;;;;12.30;3.05;;;;;;;;;;5134373;27;20019;-80
2022/12/06 13:38:03;;;;;;;9.02;3.05;;;;;;;;;;5116383;27;20079;-80
2022/12/06 13:40:32;;;;;;;6.10;2.85;;;;;;;;;;5116450;27;20712;-80
2022/12/06 13:43:03;;;;;;;5.38;2.53;;;;;;;;;;5134935;27;20031;-80
2022/12/06 13:45:29;;;;;;;8.50;2.70;;;;;;;;;;5116464;27;20539;-79
2022/12/06 13:47:55;;;;;;;6.72;3.13;;;;;;;;;;5122150;27;20047;-81
2022/12/06 13:50:22;;;;;;;8.43;3.00;;;;;;;;;;5116231;27;20043;-80
2022/12/06 13:52:47;;;;;;;5.35;2.50;;;;;;;;;;5134788;27;20030;-81
2022/12/06 13:55:27;;;;;;;7.93;2.50;;;;;;;;;;5124599;27;20014;-81
2022/12/06 13:57:59;;;;;;;7.28;2.53;;;;;;;;;;5154916;27;20498;-81
2022/12/06 14:00:28;;;;;;;6.15;2.45;;;;;;;;;;5136836;27;20121;-81
2022/12/06 14:03:17;;;;;;;4.90;2.47;;;;;;;;;;5136731;27;20038;-81
2022/12/06 14:05:56;;;;;;;6.35;2.60;;;;;;;;;;5089205;27;20476;-81
2022/12/06 14:08:24;;;;;;;4.97;2.42;;;;;;;;;;5136556;27;20031;-80
2022/12/06 14:10:50;;;;;;;4.65;2.65;;;;;;;;;;5135710;27;20437;-82
2022/12/06 14:13:20;;;;;;;4.50;2.55;;;;;;;;;;5137018;27;20019;-80
2022/12/06 14:15:48;;;;;;;8.07;2.97;;;;;;;;;;5154902;27;20053;-80
2022/12/06 14:18:18;;;;;;;5.90;2.50;;;;;;;;;;5136607;27;20077;-80
2022/12/06 14:20:47;;;;;;;6.15;2.60;;;;;;;;;;5133963;27;20551;-78
2022/12/06 14:23:42;;;;;;;4.95;2.30;;;;;;;;;;5135373;27;20023;-78
2022/12/06 14:26:13;;;;;;;4.43;2.38;;;;;;;;;;5142324;27;20118;-78
2022/12/06 14:28:39;;;;;;;5.97;2.40;;;;;;;;;;5133030;27;20026;-78
2022/12/06 14:31:06;;;;;;;8.63;2.60;;;;;;;;;;5135382;27;20018;-78
2022/12/06 14:33:33;;;;;;;10.10;2.72;;;;;;;;;;5154367;27;20465;-79
2022/12/06 14:35:59;;;;;;;4.82;2.47;;;;;;;;;;5136340;27;20659;-79
2022/12/06 14:38:29;;;;;;;4.85;2.63;;;;;;;;;;5135940;27;20091;-79
2022/12/06 14:43:41;;;;;;;5.60;2.60;;;;;;;;;;5154983;27;20134;-82
2022/12/06 14:46:11;;;;;;;5.35;2.50;;;;;;;;;;5154561;27;20054;-82
2022/12/06 14:51:27;;;;;;;7.63;3.28;;;;;;;;;;5153241;27;20034;-80
2022/12/06 14:53:53;;;;;;;5.10;2.42;;;;;;;;;;5152464;27;20007;-83
2022/12/06 14:56:22;;;;;;;5.78;2.25;;;;;;;;;;5118296;27;20026;-79
2022/12/06 14:58:48;;;;;;;6.40;2.50;;;;;;;;;;5154258;27;20087;-80
2022/12/06 15:01:16;;;;;;;6.28;2.47;;;;;;;;;;5135347;27;20022;-80
2022/12/06 15:03:43;;;;;;;4.50;2.08;;;;;;;;;;5134079;27;20101;-80
2022/12/06 15:06:11;;;;;;;11.55;2.65;;;;;;;;;;5118305;27;20035;-79
2022/12/06 15:08:38;;;;;;;7.05;2.35;;;;;;;;;;5134936;27;20135;-80
2022/12/06 15:11:10;;;;;;;4.35;2.38;;;;;;;;;;5135393;27;20038;-80
2022/12/06 15:13:36;;;;;;;;;;;;;;;;;;5135717;27;20102;-79
2022/12/06 15:16:02;;;;;;;6.75;2.15;;;;;;;;;;5153391;27;20002;-80
2022/12/06 15:18:31;;;;;;;5.72;2.35;;;;;;;;;;5128336;27;20075;-80
2022/12/06 15:20:57;;;;;;;6.00;2.72;;;;;;;;;;5153614;27;20103;-80
2022/12/06 15:23:23;;;;;;;5.32;2.20;;;;;;;;;;5117811;27;20030;-80
2022/12/06 15:25:49;;;;;;;9.63;2.92;;;;;;;;;;5135274;27;20030;-80
2022/12/06 15:28:15;;;;;;;6.25;2.55;;;;;;;;;;5150812;27;20026;-80
2022/12/06 15:30:41;;;;;;;10.88;2.60;;;;;;;;;;5111878;27;20034;-80
2022/12/06 15:33:14;;;;;;;6.55;3.00;;;;;;;;;;5129333;27;20534;-80
2022/12/06 15:35:40;;;;;;;7.50;4.00;;;;;;;;;;5135089;27;20413;-80
2022/12/06 15:38:06;;;;;;;9.20;3.45;;;;;;;;;;5118039;27;20423;-80
2022/12/06 15:40:32;;;;;;;7.50;3.45;;;;;;;;;;5117845;27;20364;-80
2022/12/06 15:42:58;;;;;;;11.30;3.70;;;;;;;;;;5134857;27;20035;-80
2022/12/06 15:45:24;;;;;;;13.73;4.07;;;;;;;;;;5117978;27;20034;-80
2022/12/06 15:47:51;;;;;;;9.18;4.00;;;;;;;;;;5107091;28;20043;-80
2022/12/06 15:50:18;;;;;;;11.07;4.10;;;;;;;;;;5114592;27;20126;-80